sensor_id;sensor_type;location;lat;lon;timestamp;temperature;humidity
18388;DHT22;9320;50.256;19.026;2023-07-13T00:00:56;21.20;99.90
18388;DHT22;9320;50.256;19.026;2023-07-13T00:03:24;21.20;99.90
18388;DHT22;9320;50.256;19.026;2023-07-13T00:06:00;21.10;99.90
18388;DHT22;9320;50.256;19.026;2023-07-13T00:08:30;21.10;99.90
18388;DHT22;9320;50.256;19.026;2023-07-13T00:10:59;21.10;99.90
18388;DHT22;9320;50.256;19.026;2023-07-13T00:13:28;21.10;99.90
18388;DHT22;9320;50.256;19.026;2023-07-13T00:15:57;21.10;99.90
18388;DHT22;9320;50.256;19.026;2023-07-13T00:18:25;21.10;99.90
18388;DHT22;9320;50.256;19.026;2023-07-13T00:20:58;21.00;99.90
18388;DHT22;9320;50.256;19.026;2023-07-13T00:23:32;21.00;99.90
18388;DHT22;9320;50.256;19.026;2023-07-13T00:26:02;20.90;99.90
18388;DHT22;9320;50.256;19.026;2023-07-13T00:28:30;20.90;99.90
18388;DHT22;9320;50.256;19.026;2023-07-13T00:30:58;20.90;99.90
18388;DHT22;9320;50.256;19.026;2023-07-13T00:33:27;20.80;99.90
18388;DHT22;9320;50.256;19.026;2023-07-13T00:35:56;20.80;99.90
18388;DHT22;9320;50.256;19.026;2023-07-13T00:38:26;20.80;99.90
18388;DHT22;9320;50.256;19.026;2023-07-13T00:40:54;20.80;99.90
18388;DHT22;9320;50.256;19.026;2023-07-13T00:43:25;20.90;99.90
18388;DHT22;9320;50.256;19.026;2023-07-13T00:46:20;20.90;99.90
18388;DHT22;9320;50.256;19.026;2023-07-13T00:48:49;20.80;99.90
18388;DHT22;9320;50.256;19.026;2023-07-13T00:51:22;20.80;99.90
18388;DHT22;9320;50.256;19.026;2023-07-13T00:53:54;20.70;99.90
18388;DHT22;9320;50.256;19.026;2023-07-13T00:56:23;20.60;99.90
18388;DHT22;9320;50.256;19.026;2023-07-13T00:58:52;20.60;99.90
18388;DHT22;9320;50.256;19.026;2023-07-13T01:01:20;20.60;99.90
18388;DHT22;9320;50.256;19.026;2023-07-13T01:03:49;20.60;99.90
18388;DHT22;9320;50.256;19.026;2023-07-13T01:06:17;20.60;99.90
18388;DHT22;9320;50.256;19.026;2023-07-13T01:08:45;20.80;99.90
18388;DHT22;9320;50.256;19.026;2023-07-13T01:11:18;20.80;99.90
18388;DHT22;9320;50.256;19.026;2023-07-13T01:13:48;20.70;99.90
18388;DHT22;9320;50.256;19.026;2023-07-13T01:16:22;20.60;99.90
18388;DHT22;9320;50.256;19.026;2023-07-13T01:18:52;20.70;99.90
18388;DHT22;9320;50.256;19.026;2023-07-13T01:21:21;20.70;99.90
18388;DHT22;9320;50.256;19.026;2023-07-13T01:23:50;20.70;99.90
18388;DHT22;9320;50.256;19.026;2023-07-13T01:26:18;20.80;99.90
18388;DHT22;9320;50.256;19.026;2023-07-13T01:28:46;20.90;99.90
18388;DHT22;9320;50.256;19.026;2023-07-13T01:31:14;20.90;99.90
18388;DHT22;9320;50.256;19.026;2023-07-13T01:33:42;20.90;99.90
18388;DHT22;9320;50.256;19.026;2023-07-13T01:36:11;20.90;99.90
18388;DHT22;9320;50.256;19.026;2023-07-13T01:38:41;20.90;99.90
18388;DHT22;9320;50.256;19.026;2023-07-13T01:41:10;21.00;99.90
18388;DHT22;9320;50.256;19.026;2023-07-13T01:43:39;21.00;99.90
18388;DHT22;9320;50.256;19.026;2023-07-13T01:46:07;21.00;99.90
18388;DHT22;9320;50.256;19.026;2023-07-13T01:48:49;20.90;99.90
18388;DHT22;9320;50.256;19.026;2023-07-13T01:51:18;20.80;99.90
18388;DHT22;9320;50.256;19.026;2023-07-13T01:53:47;20.80;99.90
18388;DHT22;9320;50.256;19.026;2023-07-13T01:56:16;20.80;99.90
18388;DHT22;9320;50.256;19.026;2023-07-13T01:58:45;20.80;99.90
18388;DHT22;9320;50.256;19.026;2023-07-13T02:01:13;20.80;99.90
18388;DHT22;9320;50.256;19.026;2023-07-13T02:03:41;20.80;99.90
18388;DHT22;9320;50.256;19.026;2023-07-13T02:06:09;20.90;99.90
18388;DHT22;9320;50.256;19.026;2023-07-13T02:08:40;20.90;99.90
18388;DHT22;9320;50.256;19.026;2023-07-13T02:11:09;20.80;99.90
18388;DHT22;9320;50.256;19.026;2023-07-13T02:13:37;20.70;99.90
18388;DHT22;9320;50.256;19.026;2023-07-13T02:16:05;20.60;99.90
18388;DHT22;9320;50.256;19.026;2023-07-13T02:18:34;20.60;99.90
18388;DHT22;9320;50.256;19.026;2023-07-13T02:21:02;20.50;99.90
18388;DHT22;9320;50.256;19.026;2023-07-13T02:23:30;20.50;99.90
18388;DHT22;9320;50.256;19.026;2023-07-13T02:25:59;20.50;99.90
18388;DHT22;9320;50.256;19.026;2023-07-13T02:28:30;20.20;99.90
18388;DHT22;9320;50.256;19.026;2023-07-13T02:31:05;20.50;99.90
18388;DHT22;9320;50.256;19.026;2023-07-13T02:33:33;20.40;99.90
18388;DHT22;9320;50.256;19.026;2023-07-13T02:36:01;20.40;99.90
18388;DHT22;9320;50.256;19.026;2023-07-13T02:38:30;20.30;99.90
18388;DHT22;9320;50.256;19.026;2023-07-13T02:41:00;20.40;99.90
18388;DHT22;9320;50.256;19.026;2023-07-13T02:43:30;20.40;99.90
18388;DHT22;9320;50.256;19.026;2023-07-13T02:45:58;20.30;99.90
18388;DHT22;9320;50.256;19.026;2023-07-13T02:48:30;20.40;99.90
18388;DHT22;9320;50.256;19.026;2023-07-13T02:50:58;20.40;99.90
18388;DHT22;9320;50.256;19.026;2023-07-13T02:53:26;20.40;99.90
18388;DHT22;9320;50.256;19.026;2023-07-13T02:55:54;20.30;99.90
18388;DHT22;9320;50.256;19.026;2023-07-13T02:58:23;20.20;99.90
18388;DHT22;9320;50.256;19.026;2023-07-13T03:00:52;20.20;99.90
18388;DHT22;9320;50.256;19.026;2023-07-13T03:03:21;20.20;99.90
18388;DHT22;9320;50.256;19.026;2023-07-13T03:05:58;20.10;99.90
18388;DHT22;9320;50.256;19.026;2023-07-13T03:08:26;20.20;99.90
18388;DHT22;9320;50.256;19.026;2023-07-13T03:10:59;20.20;99.90
18388;DHT22;9320;50.256;19.026;2023-07-13T03:13:28;20.20;99.90
18388;DHT22;9320;50.256;19.026;2023-07-13T03:15:57;20.20;99.90
18388;DHT22;9320;50.256;19.026;2023-07-13T03:18:26;20.20;99.90
18388;DHT22;9320;50.256;19.026;2023-07-13T03:20:54;20.20;99.90
18388;DHT22;9320;50.256;19.026;2023-07-13T03:23:22;20.20;99.90
18388;DHT22;9320;50.256;19.026;2023-07-13T03:26:01;20.30;99.90
18388;DHT22;9320;50.256;19.026;2023-07-13T03:28:29;20.40;99.90
18388;DHT22;9320;50.256;19.026;2023-07-13T03:31:04;20.30;99.90
18388;DHT22;9320;50.256;19.026;2023-07-13T03:33:33;20.40;99.90
18388;DHT22;9320;50.256;19.026;2023-07-13T03:36:02;20.40;99.90
18388;DHT22;9320;50.256;19.026;2023-07-13T03:38:30;20.50;99.90
18388;DHT22;9320;50.256;19.026;2023-07-13T03:40:58;20.60;99.90
18388;DHT22;9320;50.256;19.026;2023-07-13T03:43:27;20.60;99.90
18388;DHT22;9320;50.256;19.026;2023-07-13T03:45:55;20.60;99.90
18388;DHT22;9320;50.256;19.026;2023-07-13T03:48:25;20.70;99.90
18388;DHT22;9320;50.256;19.026;2023-07-13T03:50:53;20.70;99.90
18388;DHT22;9320;50.256;19.026;2023-07-13T03:53:21;20.80;99.90
18388;DHT22;9320;50.256;19.026;2023-07-13T03:55:49;20.70;99.90
18388;DHT22;9320;50.256;19.026;2023-07-13T03:58:26;20.70;99.90
18388;DHT22;9320;50.256;19.026;2023-07-13T04:00:55;20.80;99.90
18388;DHT22;9320;50.256;19.026;2023-07-13T04:03:25;20.80;99.90
18388;DHT22;9320;50.256;19.026;2023-07-13T04:05:55;20.90;99.90
18388;DHT22;9320;50.256;19.026;2023-07-13T04:08:27;21.00;99.90
18388;DHT22;9320;50.256;19.026;2023-07-13T04:10:55;21.10;99.90
18388;DHT22;9320;50.256;19.026;2023-07-13T04:13:24;21.10;99.90
18388;DHT22;9320;50.256;19.026;2023-07-13T04:15:53;21.20;99.90
18388;DHT22;9320;50.256;19.026;2023-07-13T04:18:21;21.20;99.90
18388;DHT22;9320;50.256;19.026;2023-07-13T04:20:51;21.30;99.90
18388;DHT22;9320;50.256;19.026;2023-07-13T04:23:19;21.30;99.90
18388;DHT22;9320;50.256;19.026;2023-07-13T04:25:48;21.30;99.90
18388;DHT22;9320;50.256;19.026;2023-07-13T04:28:20;21.40;99.90
18388;DHT22;9320;50.256;19.026;2023-07-13T04:30:48;21.50;99.90
18388;DHT22;9320;50.256;19.026;2023-07-13T04:33:17;21.50;99.90
18388;DHT22;9320;50.256;19.026;2023-07-13T04:35:50;21.60;99.90
18388;DHT22;9320;50.256;19.026;2023-07-13T04:38:21;21.70;99.90
18388;DHT22;9320;50.256;19.026;2023-07-13T04:40:51;21.70;99.90
18388;DHT22;9320;50.256;19.026;2023-07-13T04:43:19;21.80;99.90
18388;DHT22;9320;50.256;19.026;2023-07-13T04:45:47;21.90;99.90
18388;DHT22;9320;50.256;19.026;2023-07-13T04:48:15;22.00;99.90
18388;DHT22;9320;50.256;19.026;2023-07-13T04:50:43;22.10;99.90
18388;DHT22;9320;50.256;19.026;2023-07-13T04:53:13;22.20;99.90
18388;DHT22;9320;50.256;19.026;2023-07-13T04:55:41;22.20;99.90
18388;DHT22;9320;50.256;19.026;2023-07-13T04:58:09;22.10;99.90
18388;DHT22;9320;50.256;19.026;2023-07-13T05:00:37;22.10;99.90
18388;DHT22;9320;50.256;19.026;2023-07-13T05:03:05;22.20;99.90
18388;DHT22;9320;50.256;19.026;2023-07-13T05:05:33;22.30;99.90
18388;DHT22;9320;50.256;19.026;2023-07-13T05:08:01;22.40;99.90
18388;DHT22;9320;50.256;19.026;2023-07-13T05:10:31;22.20;99.90
18388;DHT22;9320;50.256;19.026;2023-07-13T05:12:59;22.00;99.90
18388;DHT22;9320;50.256;19.026;2023-07-13T05:15:27;21.90;99.90
18388;DHT22;9320;50.256;19.026;2023-07-13T05:17:55;21.80;99.90
18388;DHT22;9320;50.256;19.026;2023-07-13T05:20:23;21.90;99.90
18388;DHT22;9320;50.256;19.026;2023-07-13T05:22:51;21.80;99.90
18388;DHT22;9320;50.256;19.026;2023-07-13T05:25:19;22.00;99.90
18388;DHT22;9320;50.256;19.026;2023-07-13T05:27:49;22.10;99.90
18388;DHT22;9320;50.256;19.026;2023-07-13T05:30:17;22.20;99.90
18388;DHT22;9320;50.256;19.026;2023-07-13T05:32:45;22.30;99.90
18388;DHT22;9320;50.256;19.026;2023-07-13T05:35:13;22.40;99.90
18388;DHT22;9320;50.256;19.026;2023-07-13T05:37:41;22.40;99.90
18388;DHT22;9320;50.256;19.026;2023-07-13T05:40:10;22.30;99.90
18388;DHT22;9320;50.256;19.026;2023-07-13T05:42:38;22.40;99.90
18388;DHT22;9320;50.256;19.026;2023-07-13T05:45:08;22.40;99.90
18388;DHT22;9320;50.256;19.026;2023-07-13T05:47:36;22.40;99.90
18388;DHT22;9320;50.256;19.026;2023-07-13T05:50:05;22.70;99.90
18388;DHT22;9320;50.256;19.026;2023-07-13T05:52:34;22.80;99.90
18388;DHT22;9320;50.256;19.026;2023-07-13T05:55:02;22.70;99.90
18388;DHT22;9320;50.256;19.026;2023-07-13T05:57:30;22.80;99.90
18388;DHT22;9320;50.256;19.026;2023-07-13T05:59:58;22.90;99.90
18388;DHT22;9320;50.256;19.026;2023-07-13T06:02:27;22.90;99.90
18388;DHT22;9320;50.256;19.026;2023-07-13T06:04:55;22.90;99.90
18388;DHT22;9320;50.256;19.026;2023-07-13T06:07:23;23.10;99.90
18388;DHT22;9320;50.256;19.026;2023-07-13T06:09:51;23.00;99.90
18388;DHT22;9320;50.256;19.026;2023-07-13T06:12:20;23.00;99.90
18388;DHT22;9320;50.256;19.026;2023-07-13T06:14:48;23.10;99.90
18388;DHT22;9320;50.256;19.026;2023-07-13T06:17:16;23.20;99.90
18388;DHT22;9320;50.256;19.026;2023-07-13T06:19:46;23.30;99.90
18388;DHT22;9320;50.256;19.026;2023-07-13T06:22:14;23.10;99.90
18388;DHT22;9320;50.256;19.026;2023-07-13T06:24:42;23.30;99.90
18388;DHT22;9320;50.256;19.026;2023-07-13T06:27:10;23.50;99.90
18388;DHT22;9320;50.256;19.026;2023-07-13T06:29:38;23.80;99.90
18388;DHT22;9320;50.256;19.026;2023-07-13T06:32:08;23.80;99.90
18388;DHT22;9320;50.256;19.026;2023-07-13T06:34:36;24.10;99.90
18388;DHT22;9320;50.256;19.026;2023-07-13T06:37:09;24.40;99.90
18388;DHT22;9320;50.256;19.026;2023-07-13T06:39:37;24.60;99.90
18388;DHT22;9320;50.256;19.026;2023-07-13T06:42:06;24.60;99.90
18388;DHT22;9320;50.256;19.026;2023-07-13T06:44:34;24.60;99.90
18388;DHT22;9320;50.256;19.026;2023-07-13T06:47:02;24.60;99.90
18388;DHT22;9320;50.256;19.026;2023-07-13T06:49:31;24.90;99.90
18388;DHT22;9320;50.256;19.026;2023-07-13T06:51:59;24.90;99.90
18388;DHT22;9320;50.256;19.026;2023-07-13T06:54:28;24.90;99.90
18388;DHT22;9320;50.256;19.026;2023-07-13T06:56:56;25.00;99.90
18388;DHT22;9320;50.256;19.026;2023-07-13T06:59:24;24.90;99.90
18388;DHT22;9320;50.256;19.026;2023-07-13T07:01:52;25.00;99.90
18388;DHT22;9320;50.256;19.026;2023-07-13T07:04:20;25.10;99.90
18388;DHT22;9320;50.256;19.026;2023-07-13T07:06:48;25.10;99.90
18388;DHT22;9320;50.256;19.026;2023-07-13T07:09:16;25.20;99.90
18388;DHT22;9320;50.256;19.026;2023-07-13T07:11:46;25.10;99.90
18388;DHT22;9320;50.256;19.026;2023-07-13T07:14:29;25.10;99.90
18388;DHT22;9320;50.256;19.026;2023-07-13T07:16:58;25.00;99.90
18388;DHT22;9320;50.256;19.026;2023-07-13T07:19:29;24.90;99.90
18388;DHT22;9320;50.256;19.026;2023-07-13T07:21:57;25.00;99.90
18388;DHT22;9320;50.256;19.026;2023-07-13T07:24:25;24.90;99.90
18388;DHT22;9320;50.256;19.026;2023-07-13T07:26:54;24.70;99.90
18388;DHT22;9320;50.256;19.026;2023-07-13T07:29:25;24.70;99.90
18388;DHT22;9320;50.256;19.026;2023-07-13T07:31:58;24.80;99.90
18388;DHT22;9320;50.256;19.026;2023-07-13T07:34:44;24.80;99.90
18388;DHT22;9320;50.256;19.026;2023-07-13T07:37:13;24.70;99.90
18388;DHT22;9320;50.256;19.026;2023-07-13T07:39:44;24.70;99.90
18388;DHT22;9320;50.256;19.026;2023-07-13T07:42:34;24.70;99.90
18388;DHT22;9320;50.256;19.026;2023-07-13T07:45:02;24.80;99.90
18388;DHT22;9320;50.256;19.026;2023-07-13T07:47:31;24.80;99.90
18388;DHT22;9320;50.256;19.026;2023-07-13T07:49:59;25.00;99.90
18388;DHT22;9320;50.256;19.026;2023-07-13T07:52:27;24.90;99.90
18388;DHT22;9320;50.256;19.026;2023-07-13T07:54:55;24.90;99.90
18388;DHT22;9320;50.256;19.026;2023-07-13T07:57:44;24.90;99.90
18388;DHT22;9320;50.256;19.026;2023-07-13T08:00:16;24.90;99.90
18388;DHT22;9320;50.256;19.026;2023-07-13T08:02:47;25.00;99.80
18388;DHT22;9320;50.256;19.026;2023-07-13T08:05:18;25.00;98.30
18388;DHT22;9320;50.256;19.026;2023-07-13T08:08:04;25.20;99.70
18388;DHT22;9320;50.256;19.026;2023-07-13T08:10:35;25.40;99.90
18388;DHT22;9320;50.256;19.026;2023-07-13T08:13:05;25.80;99.90
18388;DHT22;9320;50.256;19.026;2023-07-13T08:15:38;26.10;99.90
18388;DHT22;9320;50.256;19.026;2023-07-13T08:18:07;26.30;97.80
18388;DHT22;9320;50.256;19.026;2023-07-13T08:20:37;26.40;97.60
18388;DHT22;9320;50.256;19.026;2023-07-13T08:23:06;26.50;97.80
18388;DHT22;9320;50.256;19.026;2023-07-13T08:25:34;26.80;97.90
18388;DHT22;9320;50.256;19.026;2023-07-13T08:28:04;26.80;97.60
18388;DHT22;9320;50.256;19.026;2023-07-13T08:30:32;26.80;97.90
18388;DHT22;9320;50.256;19.026;2023-07-13T08:33:00;26.80;96.30
18388;DHT22;9320;50.256;19.026;2023-07-13T08:35:28;27.00;95.70
18388;DHT22;9320;50.256;19.026;2023-07-13T08:37:56;27.10;95.10
18388;DHT22;9320;50.256;19.026;2023-07-13T08:40:25;27.10;94.20
18388;DHT22;9320;50.256;19.026;2023-07-13T08:42:57;26.70;94.40
18388;DHT22;9320;50.256;19.026;2023-07-13T08:45:30;26.60;94.00
18388;DHT22;9320;50.256;19.026;2023-07-13T08:48:05;26.50;93.40
18388;DHT22;9320;50.256;19.026;2023-07-13T08:50:45;26.60;92.00
18388;DHT22;9320;50.256;19.026;2023-07-13T08:53:32;26.80;90.30
18388;DHT22;9320;50.256;19.026;2023-07-13T08:56:09;27.00;87.50
18388;DHT22;9320;50.256;19.026;2023-07-13T08:58:39;27.10;85.50
18388;DHT22;9320;50.256;19.026;2023-07-13T09:01:17;27.20;83.60
18388;DHT22;9320;50.256;19.026;2023-07-13T09:03:53;27.10;84.90
18388;DHT22;9320;50.256;19.026;2023-07-13T09:06:31;27.10;85.90
18388;DHT22;9320;50.256;19.026;2023-07-13T09:09:03;27.10;87.60
18388;DHT22;9320;50.256;19.026;2023-07-13T09:11:43;26.80;90.00
18388;DHT22;9320;50.256;19.026;2023-07-13T09:14:37;26.60;90.20
18388;DHT22;9320;50.256;19.026;2023-07-13T09:17:13;26.30;91.20
18388;DHT22;9320;50.256;19.026;2023-07-13T09:19:44;26.20;91.50
18388;DHT22;9320;50.256;19.026;2023-07-13T09:22:17;26.20;91.60
18388;DHT22;9320;50.256;19.026;2023-07-13T09:24:54;26.20;91.10
18388;DHT22;9320;50.256;19.026;2023-07-13T09:27:27;26.20;91.20
18388;DHT22;9320;50.256;19.026;2023-07-13T09:32:51;26.20;91.60
18388;DHT22;9320;50.256;19.026;2023-07-13T09:35:23;26.10;91.80
18388;DHT22;9320;50.256;19.026;2023-07-13T09:37:58;26.00;92.30
18388;DHT22;9320;50.256;19.026;2023-07-13T09:40:36;25.70;93.40
18388;DHT22;9320;50.256;19.026;2023-07-13T09:43:09;25.20;95.40
18388;DHT22;9320;50.256;19.026;2023-07-13T09:45:38;24.70;97.00
18388;DHT22;9320;50.256;19.026;2023-07-13T09:48:12;24.10;98.30
18388;DHT22;9320;50.256;19.026;2023-07-13T09:50:41;23.70;99.90
18388;DHT22;9320;50.256;19.026;2023-07-13T09:53:14;23.40;99.90
18388;DHT22;9320;50.256;19.026;2023-07-13T09:55:44;23.20;99.90
18388;DHT22;9320;50.256;19.026;2023-07-13T09:58:14;23.00;99.90
18388;DHT22;9320;50.256;19.026;2023-07-13T10:00:44;22.80;99.90
18388;DHT22;9320;50.256;19.026;2023-07-13T10:03:23;22.60;99.90
18388;DHT22;9320;50.256;19.026;2023-07-13T10:05:53;22.30;99.90
18388;DHT22;9320;50.256;19.026;2023-07-13T10:08:23;21.80;99.90
18388;DHT22;9320;50.256;19.026;2023-07-13T10:10:58;21.40;99.90
18388;DHT22;9320;50.256;19.026;2023-07-13T10:13:33;21.20;99.90
18388;DHT22;9320;50.256;19.026;2023-07-13T10:16:05;20.80;99.90
18388;DHT22;9320;50.256;19.026;2023-07-13T10:18:43;20.60;99.90
18388;DHT22;9320;50.256;19.026;2023-07-13T10:21:15;20.40;99.90
18388;DHT22;9320;50.256;19.026;2023-07-13T10:23:50;20.10;99.90
18388;DHT22;9320;50.256;19.026;2023-07-13T10:26:23;19.80;99.90
18388;DHT22;9320;50.256;19.026;2023-07-13T10:28:54;19.50;99.90
18388;DHT22;9320;50.256;19.026;2023-07-13T10:31:23;19.40;99.90
18388;DHT22;9320;50.256;19.026;2023-07-13T10:33:53;19.20;99.90
18388;DHT22;9320;50.256;19.026;2023-07-13T10:36:32;19.00;99.90
18388;DHT22;9320;50.256;19.026;2023-07-13T10:39:03;18.70;99.90
18388;DHT22;9320;50.256;19.026;2023-07-13T10:41:36;18.50;99.90
18388;DHT22;9320;50.256;19.026;2023-07-13T10:44:12;18.50;99.90
18388;DHT22;9320;50.256;19.026;2023-07-13T10:46:43;18.50;99.90
18388;DHT22;9320;50.256;19.026;2023-07-13T10:49:13;18.40;99.90
18388;DHT22;9320;50.256;19.026;2023-07-13T10:51:42;18.50;99.90
18388;DHT22;9320;50.256;19.026;2023-07-13T10:54:14;18.60;99.90
18388;DHT22;9320;50.256;19.026;2023-07-13T10:56:48;18.50;99.90
18388;DHT22;9320;50.256;19.026;2023-07-13T10:59:24;18.50;99.90
18388;DHT22;9320;50.256;19.026;2023-07-13T11:01:57;18.60;99.90
18388;DHT22;9320;50.256;19.026;2023-07-13T11:04:29;18.80;99.90
18388;DHT22;9320;50.256;19.026;2023-07-13T11:06:59;18.90;99.90
18388;DHT22;9320;50.256;19.026;2023-07-13T11:09:39;19.00;99.90
18388;DHT22;9320;50.256;19.026;2023-07-13T11:12:10;19.10;99.90
18388;DHT22;9320;50.256;19.026;2023-07-13T11:15:11;19.10;99.90
18388;DHT22;9320;50.256;19.026;2023-07-13T11:17:50;19.10;99.90
18388;DHT22;9320;50.256;19.026;2023-07-13T11:20:38;19.20;99.90
18388;DHT22;9320;50.256;19.026;2023-07-13T11:23:19;19.00;99.90
18388;DHT22;9320;50.256;19.026;2023-07-13T11:25:48;19.00;99.90
18388;DHT22;9320;50.256;19.026;2023-07-13T11:28:21;19.10;99.90
18388;DHT22;9320;50.256;19.026;2023-07-13T11:31:03;19.30;99.90
18388;DHT22;9320;50.256;19.026;2023-07-13T11:33:53;19.30;99.90
18388;DHT22;9320;50.256;19.026;2023-07-13T11:36:24;19.20;99.90
18388;DHT22;9320;50.256;19.026;2023-07-13T11:38:59;19.10;99.90
18388;DHT22;9320;50.256;19.026;2023-07-13T11:41:31;19.10;99.90
18388;DHT22;9320;50.256;19.026;2023-07-13T11:44:08;19.10;99.90
18388;DHT22;9320;50.256;19.026;2023-07-13T11:46:38;19.20;99.90
18388;DHT22;9320;50.256;19.026;2023-07-13T11:49:07;19.20;99.90
18388;DHT22;9320;50.256;19.026;2023-07-13T11:51:36;19.30;99.90
18388;DHT22;9320;50.256;19.026;2023-07-13T11:54:10;19.50;99.90
18388;DHT22;9320;50.256;19.026;2023-07-13T11:56:41;19.30;99.90
18388;DHT22;9320;50.256;19.026;2023-07-13T11:59:12;19.50;99.90
18388;DHT22;9320;50.256;19.026;2023-07-13T12:01:43;19.90;99.90
18388;DHT22;9320;50.256;19.026;2023-07-13T12:04:21;20.20;99.90
18388;DHT22;9320;50.256;19.026;2023-07-13T12:07:04;20.00;99.90
18388;DHT22;9320;50.256;19.026;2023-07-13T12:09:34;19.90;99.90
18388;DHT22;9320;50.256;19.026;2023-07-13T12:12:08;20.10;99.90
18388;DHT22;9320;50.256;19.026;2023-07-13T12:14:37;20.10;99.90
18388;DHT22;9320;50.256;19.026;2023-07-13T12:17:10;20.20;99.90
18388;DHT22;9320;50.256;19.026;2023-07-13T12:19:40;20.40;99.90
18388;DHT22;9320;50.256;19.026;2023-07-13T12:22:12;20.40;99.90
18388;DHT22;9320;50.256;19.026;2023-07-13T12:24:41;20.80;99.90
18388;DHT22;9320;50.256;19.026;2023-07-13T12:27:19;21.10;99.90
18388;DHT22;9320;50.256;19.026;2023-07-13T12:29:52;21.20;99.90
18388;DHT22;9320;50.256;19.026;2023-07-13T12:32:21;21.40;99.90
18388;DHT22;9320;50.256;19.026;2023-07-13T12:34:53;21.80;99.90
18388;DHT22;9320;50.256;19.026;2023-07-13T12:37:24;22.30;99.90
18388;DHT22;9320;50.256;19.026;2023-07-13T12:39:52;22.50;99.90
18388;DHT22;9320;50.256;19.026;2023-07-13T12:42:23;22.70;99.90
18388;DHT22;9320;50.256;19.026;2023-07-13T12:44:57;22.70;99.90
18388;DHT22;9320;50.256;19.026;2023-07-13T12:47:26;22.50;99.90
18388;DHT22;9320;50.256;19.026;2023-07-13T12:49:57;22.50;99.90
18388;DHT22;9320;50.256;19.026;2023-07-13T12:52:31;22.40;99.90
18388;DHT22;9320;50.256;19.026;2023-07-13T12:55:04;22.40;99.90
18388;DHT22;9320;50.256;19.026;2023-07-13T12:57:39;22.40;99.90
18388;DHT22;9320;50.256;19.026;2023-07-13T13:00:23;22.60;99.90
18388;DHT22;9320;50.256;19.026;2023-07-13T13:02:54;23.00;99.90
18388;DHT22;9320;50.256;19.026;2023-07-13T13:05:44;23.10;99.90
18388;DHT22;9320;50.256;19.026;2023-07-13T13:08:14;23.40;99.90
18388;DHT22;9320;50.256;19.026;2023-07-13T13:10:42;23.30;99.90
18388;DHT22;9320;50.256;19.026;2023-07-13T13:13:12;23.30;99.90
18388;DHT22;9320;50.256;19.026;2023-07-13T13:15:40;23.40;99.90
18388;DHT22;9320;50.256;19.026;2023-07-13T13:18:15;23.30;99.90
18388;DHT22;9320;50.256;19.026;2023-07-13T13:20:43;23.40;99.90
18388;DHT22;9320;50.256;19.026;2023-07-13T13:23:15;23.50;99.90
18388;DHT22;9320;50.256;19.026;2023-07-13T13:25:48;23.80;99.90
18388;DHT22;9320;50.256;19.026;2023-07-13T13:28:18;23.90;99.90
18388;DHT22;9320;50.256;19.026;2023-07-13T13:30:48;23.80;99.90
18388;DHT22;9320;50.256;19.026;2023-07-13T13:33:18;23.90;99.90
18388;DHT22;9320;50.256;19.026;2023-07-13T13:35:47;23.80;99.90
18388;DHT22;9320;50.256;19.026;2023-07-13T13:38:18;23.80;99.90
18388;DHT22;9320;50.256;19.026;2023-07-13T13:40:47;24.00;99.90
18388;DHT22;9320;50.256;19.026;2023-07-13T13:43:16;24.10;99.90
18388;DHT22;9320;50.256;19.026;2023-07-13T13:45:45;24.00;99.30
18388;DHT22;9320;50.256;19.026;2023-07-13T13:48:15;23.60;99.90
18388;DHT22;9320;50.256;19.026;2023-07-13T13:50:45;23.30;99.90
18388;DHT22;9320;50.256;19.026;2023-07-13T13:53:13;23.20;99.90
18388;DHT22;9320;50.256;19.026;2023-07-13T13:55:42;23.00;99.30
18388;DHT22;9320;50.256;19.026;2023-07-13T13:58:10;23.00;99.90
18388;DHT22;9320;50.256;19.026;2023-07-13T14:00:38;22.70;99.90
18388;DHT22;9320;50.256;19.026;2023-07-13T14:03:14;22.60;99.90
18388;DHT22;9320;50.256;19.026;2023-07-13T14:05:43;22.60;99.90
18388;DHT22;9320;50.256;19.026;2023-07-13T14:08:15;22.50;99.90
18388;DHT22;9320;50.256;19.026;2023-07-13T14:10:45;22.50;99.90
18388;DHT22;9320;50.256;19.026;2023-07-13T14:13:17;22.50;99.90
18388;DHT22;9320;50.256;19.026;2023-07-13T14:15:46;22.70;99.90
18388;DHT22;9320;50.256;19.026;2023-07-13T14:18:14;23.00;99.90
18388;DHT22;9320;50.256;19.026;2023-07-13T14:20:45;23.10;99.90
18388;DHT22;9320;50.256;19.026;2023-07-13T14:23:14;23.10;99.90
18388;DHT22;9320;50.256;19.026;2023-07-13T14:25:46;23.00;99.90
18388;DHT22;9320;50.256;19.026;2023-07-13T14:28:20;23.10;99.90
18388;DHT22;9320;50.256;19.026;2023-07-13T14:30:49;23.50;99.90
18388;DHT22;9320;50.256;19.026;2023-07-13T14:33:17;23.70;99.90
18388;DHT22;9320;50.256;19.026;2023-07-13T14:35:46;23.70;98.90
18388;DHT22;9320;50.256;19.026;2023-07-13T14:38:19;23.70;99.80
18388;DHT22;9320;50.256;19.026;2023-07-13T14:40:49;23.60;99.60
18388;DHT22;9320;50.256;19.026;2023-07-13T14:43:17;23.60;99.90
18388;DHT22;9320;50.256;19.026;2023-07-13T14:45:47;23.80;99.90
18388;DHT22;9320;50.256;19.026;2023-07-13T14:48:19;24.00;99.90
18388;DHT22;9320;50.256;19.026;2023-07-13T14:50:51;24.10;98.10
18388;DHT22;9320;50.256;19.026;2023-07-13T14:53:20;24.10;98.40
18388;DHT22;9320;50.256;19.026;2023-07-13T14:55:50;24.20;97.50
18388;DHT22;9320;50.256;19.026;2023-07-13T14:58:19;24.10;97.20
18388;DHT22;9320;50.256;19.026;2023-07-13T15:00:47;23.90;97.40
18388;DHT22;9320;50.256;19.026;2023-07-13T15:03:19;23.50;98.10
18388;DHT22;9320;50.256;19.026;2023-07-13T15:05:49;23.40;98.90
18388;DHT22;9320;50.256;19.026;2023-07-13T15:08:18;23.30;99.50
18388;DHT22;9320;50.256;19.026;2023-07-13T15:10:46;23.30;99.40
18388;DHT22;9320;50.256;19.026;2023-07-13T15:13:16;23.40;99.50
18388;DHT22;9320;50.256;19.026;2023-07-13T15:15:46;23.30;98.40
18388;DHT22;9320;50.256;19.026;2023-07-13T15:18:16;23.20;98.50
18388;DHT22;9320;50.256;19.026;2023-07-13T15:20:45;23.10;98.50
18388;DHT22;9320;50.256;19.026;2023-07-13T15:23:16;23.00;98.10
18388;DHT22;9320;50.256;19.026;2023-07-13T15:25:45;22.80;97.20
18388;DHT22;9320;50.256;19.026;2023-07-13T15:28:15;22.70;97.80
18388;DHT22;9320;50.256;19.026;2023-07-13T15:30:45;22.70;97.00
18388;DHT22;9320;50.256;19.026;2023-07-13T15:33:16;22.70;97.60
18388;DHT22;9320;50.256;19.026;2023-07-13T15:35:45;22.80;96.60
18388;DHT22;9320;50.256;19.026;2023-07-13T15:38:19;22.90;95.90
18388;DHT22;9320;50.256;19.026;2023-07-13T15:40:47;22.90;94.60
18388;DHT22;9320;50.256;19.026;2023-07-13T15:43:18;22.80;94.40
18388;DHT22;9320;50.256;19.026;2023-07-13T15:45:47;22.60;95.00
18388;DHT22;9320;50.256;19.026;2023-07-13T15:48:17;22.50;95.20
18388;DHT22;9320;50.256;19.026;2023-07-13T15:50:47;22.40;96.30
18388;DHT22;9320;50.256;19.026;2023-07-13T15:53:18;22.40;97.10
18388;DHT22;9320;50.256;19.026;2023-07-13T15:55:47;22.40;98.00